Royston, Texas
Current Conditions -  °F | °C
As of 12:15 PM on Monday 22 Dec 2014 (Local Time) from KSWW Reporting Station
Clear Clear  
Wind Chill: 59°   Ceiling: Unl
Heat Index: 59°   Visibility: 10mi
Dew Point: 34°   Wind: 9mph
Humidity: 38%   Direction: 340°NNW
Pressure: 29.75"   Gusts: NA
Location:  32.6787°N, 100.492°W
Report Text: KSWW 221815Z AUTO 34008KT 10SM CLR 15/01 A2975 RMK AO2 T01520010
Loading
Personal Weather Stations






























Interactive Weather Map New forecast layout! Learn more

10-Day Weather Forecast

Advertisements
Track Severe Weather on mobile